Time;durP1;ratioP1;P1;durP2;ratioP2;P2;SDS_P1;SDS_P2;PMS_P1;PMS_P2;Temp;Humidity;BMP_temperature;BMP_pressure;BME280_temperature;BME280_humidity;BME280_pressure;Samples;Min_cycle;Max_cycle;Signal;HPM_P1;HPM_P2
2022/07/11 00:01:25;;;;;;;4.67;4.27;;;;;;;11.92;100.00;102113.22;5032886;28;20480;-51
2022/07/11 00:03:54;;;;;;;5.93;5.30;;;;;;;11.93;100.00;102116.72;5032250;28;20523;-49
2022/07/11 00:06:21;;;;;;;5.73;5.20;;;;;;;11.89;100.00;102124.25;5031981;28;20555;-51
2022/07/11 00:08:49;;;;;;;11.00;5.87;;;;;;;11.89;100.00;102113.56;5032444;28;20571;-52
2022/07/11 00:11:17;;;;;;;5.70;5.00;;;;;;;11.90;100.00;102122.44;5032511;28;20452;-49
2022/07/11 00:13:45;;;;;;;6.53;4.57;;;;;;;11.85;100.00;102116.78;5032272;28;20941;-53
2022/07/11 00:16:14;;;;;;;7.43;4.90;;;;;;;11.81;100.00;102123.44;5032304;28;20896;-49
2022/07/11 00:18:42;;;;;;;8.53;5.20;;;;;;;11.80;100.00;102121.81;5032171;28;20519;-50
2022/07/11 00:21:10;;;;;;;9.37;5.17;;;;;;;11.80;100.00;102116.47;5031710;28;20518;-50
2022/07/11 00:23:39;;;;;;;13.33;5.87;;;;;;;11.78;100.00;102121.13;5031939;28;21019;-45
2022/07/11 00:26:07;;;;;;;8.50;5.87;;;;;;;11.79;100.00;102120.13;5032262;28;20849;-46
2022/07/11 00:28:35;;;;;;;9.50;6.10;;;;;;;11.75;100.00;102116.94;5031985;28;21059;-45
2022/07/11 00:31:02;;;;;;;7.30;5.00;;;;;;;11.78;100.00;102115.78;5031587;28;20484;-45
2022/07/11 00:33:31;;;;;;;8.20;5.23;;;;;;;11.77;100.00;102111.47;5039505;28;20443;-46
2022/07/11 00:35:59;;;;;;;8.33;5.30;;;;;;;11.80;100.00;102105.75;5050917;28;20538;-49
2022/07/11 00:38:26;;;;;;;5.63;5.03;;;;;;;11.80;100.00;102109.25;5051859;28;20514;-45
2022/07/11 00:40:54;;;;;;;8.63;4.93;;;;;;;11.79;100.00;102112.94;5051510;28;20437;-47
2022/07/11 00:43:30;;;;;;;10.33;5.63;;;;;;;11.77;100.00;102108.78;5051589;28;20441;-44
2022/07/11 00:45:58;;;;;;;7.50;5.70;;;;;;;11.73;100.00;102116.31;5051620;28;20461;-44
2022/07/11 00:48:26;;;;;;;12.00;5.10;;;;;;;11.68;100.00;102108.75;5052095;28;20517;-45
2022/07/11 00:50:56;;;;;;;10.23;5.07;;;;;;;11.68;100.00;102112.44;5051189;28;20442;-45
2022/07/11 00:53:24;;;;;;;16.10;6.03;;;;;;;11.70;100.00;102115.81;5051501;28;20431;-45
2022/07/11 00:55:54;;;;;;;9.30;5.80;;;;;;;11.70;100.00;102108.63;5051554;28;20554;-46
2022/07/11 00:58:22;;;;;;;15.20;6.30;;;;;;;11.63;100.00;102112.94;5051751;28;20518;-45
2022/07/11 01:00:51;;;;;;;7.10;5.20;;;;;;;11.64;100.00;102120.81;5051239;28;20522;-46
2022/07/11 01:03:18;;;;;;;11.93;6.03;;;;;;;11.68;100.00;102119.44;5051607;28;20427;-46
2022/07/11 01:05:46;;;;;;;5.83;5.20;;;;;;;11.65;100.00;102126.94;5051545;28;20543;-46
2022/07/11 01:08:16;;;;;;;10.93;6.20;;;;;;;11.63;100.00;102119.13;5051483;28;20471;-46
2022/07/11 01:10:44;;;;;;;10.33;5.37;;;;;;;11.63;100.00;102119.13;5050908;28;20478;-45
2022/07/11 01:13:11;;;;;;;8.93;6.07;;;;;;;11.61;100.00;102123.81;5051434;28;20510;-45
2022/07/11 01:15:39;;;;;;;9.50;5.63;;;;;;;11.58;100.00;102117.97;5051657;28;20451;-44
2022/07/11 01:18:07;;;;;;;7.43;5.23;;;;;;;11.56;100.00;102112.78;5052322;28;20808;-45
2022/07/11 01:20:34;;;;;;;6.37;5.53;;;;;;;11.55;100.00;102123.66;5055510;28;20438;-45
2022/07/11 01:23:04;;;;;;;12.03;6.70;;;;;;;11.55;100.00;102121.81;5054680;28;20562;-45
2022/07/11 01:25:34;;;;;;;14.57;6.67;;;;;;;11.53;100.00;102122.97;5055287;28;20534;-49
2022/07/11 01:28:03;;;;;;;7.80;5.10;;;;;;;11.50;100.00;102118.78;5055466;28;20875;-45
2022/07/11 01:30:32;;;;;;;8.00;4.73;;;;;;;11.48;100.00;102128.00;5055596;28;20924;-45
2022/07/11 01:33:00;;;;;;;8.30;4.93;;;;;;;11.43;100.00;102125.00;5051290;28;20466;-46
2022/07/11 01:35:30;;;;;;;11.53;5.80;;;;;;;11.36;100.00;102119.50;5049970;28;20506;-46
2022/07/11 01:37:57;;;;;;;8.93;5.03;;;;;;;11.28;100.00;102119.50;5055130;28;20513;-44
2022/07/11 01:40:31;;;;;;;5.60;5.10;;;;;;;11.17;100.00;102117.16;5055443;28;20463;-45
2022/07/11 01:42:59;;;;;;;5.43;4.67;;;;;;;11.09;100.00;102125.16;5049892;28;20562;-45
2022/07/11 01:45:27;;;;;;;6.90;5.23;;;;;;;10.96;100.00;102120.31;5043179;28;20519;-47
2022/07/11 01:47:55;;;;;;;4.77;4.43;;;;;;;10.89;100.00;102116.66;5053524;28;20522;-45
2022/07/11 01:50:22;;;;;;;6.63;4.57;;;;;;;10.83;100.00;102116.47;5054859;28;20471;-45
2022/07/11 01:52:50;;;;;;;5.00;4.00;;;;;;;10.76;100.00;102120.78;5054220;28;20471;-44
2022/07/11 01:55:18;;;;;;;8.50;5.07;;;;;;;10.70;100.00;102124.09;5054757;28;20920;-47
2022/07/11 01:57:46;;;;;;;6.30;4.50;;;;;;;10.60;100.00;102118.94;5055003;28;20846;-45
2022/07/11 02:00:14;;;;;;;5.73;5.23;;;;;;;10.52;100.00;102122.41;5054896;28;20430;-44
2022/07/11 02:02:42;;;;;;;8.53;5.10;;;;;;;10.42;100.00;102112.91;5053960;28;20459;-44
2022/07/11 02:05:10;;;;;;;5.00;4.60;;;;;;;10.34;100.00;102121.69;5054541;28;20431;-48
2022/07/11 02:10:23;;;;;;;15.77;6.27;;;;;;;10.23;100.00;102114.00;5054696;28;20477;-44
2022/07/11 02:12:52;;;;;;;8.17;5.00;;;;;;;10.16;100.00;102112.94;5053822;28;20459;-43
2022/07/11 02:15:19;;;;;;;5.40;4.50;;;;;;;10.13;100.00;102112.41;5054453;28;20441;-44
2022/07/11 02:17:47;;;;;;;6.43;5.83;;;;;;;10.06;100.00;102112.22;5054448;28;21007;-47
2022/07/11 02:20:15;;;;;;;13.33;5.30;;;;;;;10.02;100.00;102116.19;5054576;28;21039;-45
2022/07/11 02:22:44;;;;;;;5.40;4.90;;;;;;;9.97;100.00;102110.50;5053713;28;21013;-44
2022/07/11 02:25:12;;;;;;;6.03;5.40;;;;;;;9.92;100.00;102105.66;5054293;28;20455;-45
2022/07/11 02:27:40;;;;;;;6.03;4.80;;;;;;;9.89;100.00;102116.63;5054305;28;21044;-44
2022/07/11 02:30:10;;;;;;;6.87;6.20;;;;;;;9.84;100.00;102113.63;5053893;28;20493;-44
2022/07/11 02:32:38;;;;;;;6.47;5.33;;;;;;;9.80;100.00;102119.41;5052908;28;20471;-49
2022/07/11 02:35:07;;;;;;;5.90;5.27;;;;;;;9.73;100.00;102129.88;5042243;28;20433;-45
2022/07/11 02:37:35;;;;;;;6.97;5.43;;;;;;;9.71;100.00;102131.00;5034224;28;20539;-44
2022/07/11 02:40:03;;;;;;;8.03;5.67;;;;;;;9.67;100.00;102127.84;5034312;28;20436;-45
2022/07/11 02:42:30;;;;;;;7.20;5.13;;;;;;;9.66;100.00;102131.47;5033083;28;20880;-50
2022/07/11 02:44:58;;;;;;;5.73;5.10;;;;;;;9.65;100.00;102129.78;5044742;28;20438;-46
2022/07/11 02:47:27;;;;;;;9.63;5.40;;;;;;;9.67;100.00;102127.00;5053953;28;21206;-47
2022/07/11 02:49:55;;;;;;;8.67;5.50;;;;;;;9.67;100.00;102132.31;5053986;28;20471;-43
2022/07/11 02:52:22;;;;;;;9.33;5.60;;;;;;;9.69;100.00;102128.50;5053246;28;20459;-48
2022/07/11 02:54:50;;;;;;;8.10;5.60;;;;;;;9.73;100.00;102131.69;5053902;28;20434;-44
2022/07/11 02:57:17;;;;;;;6.17;5.57;;;;;;;9.75;100.00;102133.22;5053570;28;20458;-44
2022/07/11 02:59:45;;;;;;;9.63;6.60;;;;;;;9.78;100.00;102130.22;5053838;28;20485;-44
2022/07/11 03:02:13;;;;;;;8.83;5.40;;;;;;;9.77;100.00;102133.88;5052816;28;21035;-44
2022/07/11 03:04:42;;;;;;;7.37;6.67;;;;;;;9.78;100.00;102140.88;5053655;28;20547;-48
2022/07/11 03:07:09;;;;;;;7.63;6.13;;;;;;;9.80;100.00;102154.03;5053648;28;20447;-49
2022/07/11 03:09:37;;;;;;;6.73;5.67;;;;;;;9.82;100.00;102139.59;5053313;28;20478;-44
2022/07/11 03:12:06;;;;;;;6.30;5.70;;;;;;;9.86;100.00;102148.91;5052835;28;20473;-45
2022/07/11 03:14:34;;;;;;;15.53;6.00;;;;;;;9.89;100.00;102148.59;5053528;28;20514;-44
2022/07/11 03:17:01;;;;;;;6.83;6.23;;;;;;;9.95;100.00;102141.78;5053200;28;20530;-44
2022/07/11 03:19:29;;;;;;;7.40;6.17;;;;;;;10.02;100.00;102149.00;5053252;28;20478;-45
2022/07/11 03:21:58;;;;;;;8.00;5.77;;;;;;;10.12;100.00;102143.56;5052843;28;20463;-49
2022/07/11 03:24:26;;;;;;;8.17;5.80;;;;;;;10.18;100.00;102140.31;5053306;28;20522;-43
2022/07/11 03:26:53;;;;;;;10.00;6.77;;;;;;;10.27;100.00;102141.16;5053248;28;20561;-44
2022/07/11 03:29:21;;;;;;;6.43;5.77;;;;;;;10.42;100.00;102145.69;5053170;28;20505;-46
2022/07/11 03:31:49;;;;;;;13.50;6.60;;;;;;;11.00;100.00;102142.19;5052076;28;20486;-45
2022/07/11 03:34:16;;;;;;;7.00;6.50;;;;;;;11.65;100.00;102134.97;5044613;28;20427;-43
2022/07/11 03:36:45;;;;;;;9.30;6.23;;;;;;;11.79;100.00;102130.81;5052781;28;20455;-44
2022/07/11 03:39:15;;;;;;;7.63;6.60;;;;;;;11.91;100.00;102134.78;5053103;28;20445;-43
2022/07/11 03:41:42;;;;;;;7.90;7.10;;;;;;;11.96;100.00;102137.78;5051735;28;20467;-46
2022/07/11 03:44:10;;;;;;;8.13;5.77;;;;;;;12.01;100.00;102136.25;5052719;28;20521;-44
2022/07/11 03:46:38;;;;;;;11.27;5.80;;;;;;;12.02;100.00;102131.75;5052595;28;20558;-49
2022/07/11 03:49:05;;;;;;;7.63;5.80;;;;;;;12.05;100.00;102145.59;5052863;28;21032;-44
2022/07/11 03:51:33;;;;;;;5.97;5.47;;;;;;;12.08;100.00;102133.72;5052409;28;20550;-45
2022/07/11 03:54:01;;;;;;;5.70;5.40;;;;;;;12.08;100.00;102128.38;5052700;28;20528;-44
2022/07/11 03:56:30;;;;;;;6.73;5.73;;;;;;;12.10;100.00;102137.06;5052433;28;20541;-45
2022/07/11 03:58:57;;;;;;;6.87;6.27;;;;;;;12.11;100.00;102130.72;5052450;28;20517;-46
2022/07/11 04:01:25;;;;;;;6.50;5.83;;;;;;;12.10;100.00;102129.88;5052007;28;20494;-47
2022/07/11 04:03:53;;;;;;;9.73;5.77;;;;;;;12.13;100.00;102131.34;5052540;28;20481;-45
2022/07/11 04:06:22;;;;;;;7.40;6.03;;;;;;;12.09;99.69;102130.06;5052574;28;20456;-46
2022/07/11 04:08:51;;;;;;;5.50;5.10;;;;;;;12.09;99.75;102127.38;5052406;28;20522;-46
2022/07/11 04:11:19;;;;;;;5.77;5.10;;;;;;;12.11;99.85;102136.06;5051690;28;20473;-44
2022/07/11 04:13:49;;;;;;;5.87;5.47;;;;;;;12.13;99.95;102126.84;5052297;28;20489;-44
2022/07/11 04:16:17;;;;;;;10.70;6.30;;;;;;;12.18;100.00;102129.84;5052309;28;20463;-45
2022/07/11 04:18:45;;;;;;;6.27;5.77;;;;;;;12.23;100.00;102134.69;5052287;28;20431;-44
2022/07/11 04:21:13;;;;;;;8.97;6.60;;;;;;;12.25;99.94;102127.31;5051449;28;20481;-47
2022/07/11 04:23:42;;;;;;;7.13;6.53;;;;;;;12.36;100.00;102128.78;5052072;28;20952;-47
2022/07/11 04:26:11;;;;;;;5.70;5.20;;;;;;;12.43;100.00;102119.84;5052039;28;20560;-44
2022/07/11 04:28:39;;;;;;;6.00;5.57;;;;;;;12.62;100.00;102129.28;5052037;28;20429;-48
2022/07/11 04:31:10;;;;;;;6.10;5.50;;;;;;;12.88;100.00;102126.28;5051118;28;20471;-46
2022/07/11 04:33:38;;;;;;;6.50;5.90;;;;;;;14.14;100.00;102128.97;5043464;28;20455;-44
2022/07/11 04:36:07;;;;;;;9.57;5.80;;;;;;;16.03;100.00;102123.78;5012132;28;20453;-49
2022/07/11 04:38:35;;;;;;;5.53;5.13;;;;;;;17.63;100.00;102124.78;5012293;28;21020;-44
2022/07/11 04:41:02;;;;;;;5.40;4.50;;;;;;;19.08;100.00;102123.19;5011628;28;20528;-44
2022/07/11 04:43:30;;;;;;;5.00;4.80;;;;;;;20.54;93.91;102117.97;5012237;28;20436;-45
2022/07/11 04:45:58;;;;;;;6.70;6.20;;;;;;;21.65;78.34;102126.25;5011961;28;20491;-44
2022/07/11 04:48:28;;;;;;;6.27;5.87;;;;;;;22.59;71.42;102123.13;5012236;28;21253;-45
2022/07/11 04:50:57;;;;;;;7.90;6.90;;;;;;;23.39;65.03;102121.06;5011406;28;20477;-48
2022/07/11 04:53:25;;;;;;;8.33;6.07;;;;;;;23.98;58.62;102114.03;5011888;28;20441;-46
2022/07/11 04:55:54;;;;;;;6.43;5.83;;;;;;;24.29;59.33;102119.88;5012046;28;20472;-48
2022/07/11 04:58:22;;;;;;;6.13;5.43;;;;;;;24.85;56.35;102115.91;5012161;28;20519;-49
2022/07/11 05:00:51;;;;;;;6.87;6.30;;;;;;;25.53;55.26;102112.41;5011608;28;20440;-48
2022/07/11 05:03:20;;;;;;;5.50;5.10;;;;;;;26.10;52.61;102109.72;5012230;28;20806;-49
2022/07/11 05:05:50;;;;;;;5.60;5.20;;;;;;;26.66;51.98;102129.88;5012215;28;20460;-45
2022/07/11 05:08:20;;;;;;;5.20;4.80;;;;;;;26.77;49.75;102118.69;5012186;28;20862;-49
2022/07/11 05:10:48;;;;;;;6.93;4.97;;;;;;;26.99;47.87;102121.22;5012115;28;20530;-49
2022/07/11 05:13:16;;;;;;;4.90;3.80;;;;;;;27.32;47.51;102125.31;5012087;28;20854;-48
2022/07/11 05:15:44;;;;;;;4.90;4.50;;;;;;;27.79;46.71;102122.25;5012163;28;20453;-47
2022/07/11 05:18:13;;;;;;;8.80;5.00;;;;;;;27.85;41.73;102113.72;5011810;28;21012;-46
2022/07/11 05:20:41;;;;;;;4.73;3.73;;;;;;;27.66;43.73;102125.59;5012250;28;20839;-47
2022/07/11 05:23:10;;;;;;;4.93;4.10;;;;;;;27.20;39.85;102124.78;5011195;28;20448;-46
2022/07/11 05:25:39;;;;;;;4.67;4.17;;;;;;;26.81;41.06;102130.78;5012510;28;20453;-49
2022/07/11 05:28:08;;;;;;;5.30;4.67;;;;;;;26.92;43.93;102131.59;5012097;28;20436;-46
2022/07/11 05:30:36;;;;;;;4.30;4.10;;;;;;;27.14;38.06;102126.69;5012100;28;20475;-50
2022/07/11 05:33:04;;;;;;;6.63;3.80;;;;;;;27.34;40.33;102139.53;5030838;28;20447;-50
2022/07/11 05:35:32;;;;;;;4.30;4.00;;;;;;;27.56;37.93;102140.13;5047134;28;20454;-46
2022/07/11 05:38:00;;;;;;;5.10;3.77;;;;;;;27.01;42.30;102145.56;5051714;28;20569;-49
2022/07/11 05:40:30;;;;;;;3.80;3.43;;;;;;;26.91;43.35;102144.44;5051852;28;20500;-49
2022/07/11 05:42:58;;;;;;;7.37;4.20;;;;;;;27.03;42.45;102140.66;5050666;28;20459;-48
2022/07/11 05:45:26;;;;;;;4.27;3.20;;;;;;;26.86;40.46;102146.38;5051440;28;20435;-47
2022/07/11 05:47:54;;;;;;;4.40;4.00;;;;;;;27.17;43.52;102155.44;5051541;28;20443;-51
2022/07/11 05:50:22;;;;;;;5.40;3.90;;;;;;;26.61;38.85;102154.50;5051737;28;20435;-50
2022/07/11 05:52:50;;;;;;;3.33;3.10;;;;;;;26.69;40.74;102152.06;5050646;28;20462;-47
2022/07/11 05:55:18;;;;;;;4.17;3.87;;;;;;;26.97;40.57;102144.47;5051851;28;20442;-46
2022/07/11 05:57:48;;;;;;;3.90;3.57;;;;;;;26.80;42.16;102140.06;5051711;28;20439;-46
2022/07/11 06:00:16;;;;;;;3.73;3.43;;;;;;;26.90;40.86;102144.75;5033882;28;20450;-51
2022/07/11 06:02:46;;;;;;;4.87;4.43;;;;;;;27.26;37.77;102142.84;5050542;28;20459;-45
2022/07/11 06:05:15;;;;;;;6.60;4.17;;;;;;;27.15;38.71;102149.44;5053956;28;20864;-46
2022/07/11 06:10:31;;;;;;;8.30;3.83;;;;;;;27.06;38.56;102140.09;5055357;28;20219;-48
2022/07/11 06:13:02;;;;;;;9.80;3.50;;;;;;;27.05;38.17;102143.94;5053901;28;20284;-50
2022/07/11 06:15:30;;;;;;;3.43;3.13;;;;;;;26.01;39.04;102144.94;5055083;28;20228;-54
2022/07/11 06:18:02;;;;;;;3.73;3.47;;;;;;;25.91;39.26;102142.13;5054729;28;20283;-53
2022/07/11 06:20:31;;;;;;;4.30;3.60;;;;;;;25.95;40.22;102142.44;5054675;28;20185;-48
2022/07/11 06:22:59;;;;;;;3.30;3.10;;;;;;;26.49;38.93;102145.72;5053493;28;20473;-49
2022/07/11 06:25:26;;;;;;;3.43;3.13;;;;;;;26.33;38.36;102129.25;5054186;28;20188;-50
2022/07/11 06:27:54;;;;;;;3.23;3.03;;;;;;;26.04;39.08;102135.38;5054672;28;20455;-53
2022/07/11 06:30:24;;;;;;;5.17;3.17;;;;;;;25.63;40.80;102139.75;5054396;28;20439;-55
2022/07/11 06:32:51;;;;;;;3.20;2.90;;;;;;;25.97;39.61;102132.03;5051388;28;20558;-52
2022/07/11 06:35:19;;;;;;;9.20;3.27;;;;;;;26.04;39.97;102138.09;5047667;28;20279;-50
2022/07/11 06:37:47;;;;;;;3.93;3.63;;;;;;;26.60;39.02;102139.16;5054215;28;20932;-55
2022/07/11 06:40:23;;;;;;;3.13;2.83;;;;;;;26.79;38.28;102138.41;5054566;28;20887;-53
2022/07/11 06:42:54;;;;;;;4.00;2.90;;;;;;;26.57;38.71;102142.44;5053679;28;21006;-52
2022/07/11 06:45:22;;;;;;;2.87;2.63;;;;;;;26.28;38.64;102142.09;5053900;28;20529;-51
2022/07/11 06:47:52;;;;;;;3.17;2.80;;;;;;;25.97;38.68;102140.25;5054048;28;20537;-54
2022/07/11 06:50:20;;;;;;;3.03;2.83;;;;;;;25.23;40.71;102135.63;5054233;28;20739;-52
2022/07/11 06:52:48;;;;;;;5.07;3.63;;;;;;;25.40;41.84;102143.69;5053037;28;20482;-52
2022/07/11 06:55:17;;;;;;;3.73;3.43;;;;;;;25.43;41.35;102142.31;5054877;28;20446;-49
2022/07/11 06:57:45;;;;;;;3.20;3.00;;;;;;;24.85;42.03;102148.66;5054556;28;20521;-55
2022/07/11 07:00:33;;;;;;;4.47;3.20;;;;;;;25.74;40.90;102136.03;5054132;28;20423;-48
2022/07/11 07:03:02;;;;;;;5.00;2.83;;;;;;;25.56;41.03;102144.66;5053230;28;20459;-48
2022/07/11 07:05:45;;;;;;;4.30;2.97;;;;;;;24.47;42.82;102144.09;5053745;28;21005;-46
2022/07/11 07:08:14;;;;;;;4.53;3.60;;;;;;;24.27;44.31;102150.13;5053602;28;20514;-51
2022/07/11 07:10:42;;;;;;;3.63;3.30;;;;;;;23.84;44.78;102152.75;5053641;28;20954;-48
2022/07/11 07:13:11;;;;;;;3.77;3.50;;;;;;;23.63;45.18;102157.09;5053608;28;20473;-52
2022/07/11 07:15:40;;;;;;;5.13;3.93;;;;;;;23.48;46.30;102163.13;5052612;28;20447;-48
2022/07/11 07:18:11;;;;;;;3.70;3.50;;;;;;;23.17;46.68;102166.38;5053866;28;20443;-51
2022/07/11 07:20:40;;;;;;;4.03;3.57;;;;;;;23.87;46.65;102163.16;5054135;28;20467;-48
2022/07/11 07:23:09;;;;;;;3.33;3.03;;;;;;;23.93;45.98;102163.00;5052781;28;20542;-53
2022/07/11 07:25:38;;;;;;;4.03;3.43;;;;;;;23.35;46.85;102162.59;5053840;28;20986;-51
2022/07/11 07:28:06;;;;;;;3.60;3.40;;;;;;;22.86;47.32;102158.75;5053640;28;20512;-53
2022/07/11 07:30:35;;;;;;;6.30;3.70;;;;;;;22.54;49.15;102167.34;5045653;28;20477;-50
2022/07/11 07:33:06;;;;;;;5.10;4.10;;;;;;;22.59;50.43;102169.34;5041587;28;20521;-53
2022/07/11 07:35:37;;;;;;;4.47;4.17;;;;;;;22.94;48.76;102166.50;5033561;28;20464;-48
2022/07/11 07:38:06;;;;;;;3.67;3.47;;;;;;;22.25;51.00;102171.06;5032614;28;20527;-53
2022/07/11 07:40:38;;;;;;;7.67;4.60;;;;;;;21.24;53.30;102168.69;5032819;28;20444;-47
2022/07/11 07:43:19;;;;;;;6.57;4.37;;;;;;;20.23;55.53;102173.13;5016994;28;20436;-49
2022/07/11 07:45:48;;;;;;;4.63;4.23;;;;;;;19.69;57.51;102171.16;5034069;28;20460;-51
2022/07/11 07:48:21;;;;;;;4.93;4.70;;;;;;;19.25;58.28;102167.56;5035984;28;20467;-49
2022/07/11 07:50:55;;;;;;;4.87;4.57;;;;;;;19.42;59.41;102167.03;5034964;28;20443;-48
2022/07/11 07:53:23;;;;;;;6.07;5.67;;;;;;;19.56;59.29;102164.00;5033774;28;20475;-52
2022/07/11 07:55:51;;;;;;;5.43;4.90;;;;;;;19.73;59.76;102158.84;5035908;28;20487;-51
2022/07/11 07:58:19;;;;;;;4.57;4.30;;;;;;;19.81;59.91;102158.56;5035383;28;20959;-51
2022/07/11 08:03:33;;;;;;;4.37;4.17;;;;;;;21.10;55.46;102161.81;5035953;28;20419;-51
2022/07/11 08:06:03;;;;;;;3.90;3.60;;;;;;;21.27;53.43;102168.22;5035614;28;20463;-49
2022/07/11 08:08:33;;;;;;;4.63;3.60;;;;;;;21.59;52.53;102162.47;5032895;28;20450;-48
2022/07/11 08:11:06;;;;;;;4.60;4.30;;;;;;;21.50;51.32;102164.72;5031312;28;20995;-45
2022/07/11 08:13:55;;;;;;;3.67;3.47;;;;;;;21.35;54.01;102167.91;5031712;28;20475;-49
2022/07/11 08:16:22;;;;;;;4.27;4.07;;;;;;;21.23;51.61;102158.06;5030752;28;20452;-50
2022/07/11 08:18:53;;;;;;;3.93;3.60;;;;;;;21.06;52.62;102160.56;5029435;28;20459;-53
2022/07/11 08:21:22;;;;;;;3.60;3.40;;;;;;;21.01;52.98;102165.88;5029925;28;20900;-44
2022/07/11 08:23:49;;;;;;;4.17;3.53;;;;;;;21.50;52.96;102162.00;5029915;28;20519;-46
2022/07/11 08:26:17;;;;;;;4.07;3.87;;;;;;;21.60;53.29;102167.66;5029925;28;20532;-51
2022/07/11 08:28:44;;;;;;;6.77;3.20;;;;;;;21.41;51.49;102171.56;5030242;28;20904;-44
2022/07/11 08:31:12;;;;;;;3.63;3.43;;;;;;;21.69;51.94;102165.44;5030429;28;20543;-44
2022/07/11 08:33:40;;;;;;;3.40;3.20;;;;;;;21.20;54.15;102162.09;5038017;28;20487;-46
2022/07/11 08:36:08;;;;;;;4.07;3.67;;;;;;;21.30;53.76;102165.03;5010912;28;20883;-47
2022/07/11 08:38:37;;;;;;;4.13;3.53;;;;;;;21.52;53.46;102162.59;5010836;28;20514;-45
2022/07/11 08:41:05;;;;;;;5.53;3.60;;;;;;;21.15;53.01;102171.94;5010258;28;21041;-46
2022/07/11 08:43:32;;;;;;;4.10;3.90;;;;;;;20.61;54.45;102172.91;5010710;28;20433;-47
2022/07/11 08:46:01;;;;;;;3.83;3.63;;;;;;;20.09;56.26;102166.19;5010906;28;20496;-45
2022/07/11 08:48:30;;;;;;;3.93;3.60;;;;;;;20.12;56.50;102165.75;5010093;28;20432;-44
2022/07/11 08:51:00;;;;;;;3.60;3.30;;;;;;;20.78;54.26;102168.50;5010194;28;20798;-48
2022/07/11 08:53:28;;;;;;;3.90;3.60;;;;;;;21.30;52.38;102166.91;5010372;28;20502;-48
2022/07/11 08:55:58;;;;;;;3.20;2.90;;;;;;;21.28;48.96;102169.03;5010579;28;20488;-49
2022/07/11 08:58:26;;;;;;;3.90;3.33;;;;;;;21.47;50.16;102166.00;5010721;28;20471;-49
2022/07/11 09:00:55;;;;;;;3.50;3.20;;;;;;;21.36;50.33;102171.41;5010304;28;20443;-47
2022/07/11 09:03:23;;;;;;;3.47;3.27;;;;;;;21.58;51.64;102175.22;5009868;28;20519;-44
2022/07/11 09:05:52;;;;;;;3.30;3.00;;;;;;;21.33;52.42;102174.59;5010208;28;20510;-48
2022/07/11 09:08:25;;;;;;;3.30;3.00;;;;;;;21.42;51.96;102170.47;5010434;28;20432;-46
2022/07/11 09:10:53;;;;;;;3.43;2.67;;;;;;;20.93;51.34;102161.63;5009673;28;20515;-47
2022/07/11 09:13:28;;;;;;;3.30;3.10;;;;;;;20.59;51.18;102169.59;5010115;28;21017;-48
2022/07/11 09:16:02;;;;;;;3.00;2.80;;;;;;;20.82;52.44;102170.50;5010671;28;20546;-45
2022/07/11 09:18:31;;;;;;;2.70;2.60;;;;;;;21.28;51.50;102171.75;5009913;28;20467;-46
2022/07/11 09:26:36;;;;;;;3.40;3.00;;;;;;;22.12;48.99;102171.34;5009760;28;20535;-44
2022/07/11 09:29:08;;;;;;;3.50;3.20;;;;;;;21.83;49.78;102175.81;5010695;28;20493;-44
2022/07/11 09:31:38;;;;;;;2.70;2.40;;;;;;;21.71;49.46;102182.31;5010204;28;20480;-44
2022/07/11 09:34:09;;;;;;;2.40;2.30;;;;;;;21.62;47.84;102172.88;5029952;28;21017;-47
2022/07/11 09:36:42;;;;;;;2.97;2.77;;;;;;;21.59;48.25;102171.47;5029956;28;20451;-47
2022/07/11 09:39:12;;;;;;;2.70;2.30;;;;;;;21.57;50.33;102170.00;5030549;28;20441;-48
2022/07/11 09:41:40;;;;;;;3.80;2.90;;;;;;;21.99;48.12;102163.44;5033444;28;20465;-45
2022/07/11 09:44:12;;;;;;;3.17;2.87;;;;;;;21.97;47.58;102165.59;5033613;28;20515;-46
2022/07/11 09:46:39;;;;;;;2.70;2.50;;;;;;;21.80;48.63;102167.34;5033669;28;20468;-48
2022/07/11 09:49:08;;;;;;;6.83;2.63;;;;;;;22.07;50.23;102167.69;5033698;28;20431;-47
2022/07/11 09:51:37;;;;;;;2.83;2.63;;;;;;;22.31;48.13;102163.88;5033075;28;20542;-44
2022/07/11 09:54:06;;;;;;;2.67;2.47;;;;;;;22.73;46.61;102165.28;5031931;28;20893;-44
2022/07/11 09:56:39;;;;;;;2.93;2.63;;;;;;;22.72;47.41;102155.50;5032688;28;20825;-46
2022/07/11 09:59:25;;;;;;;2.53;2.33;;;;;;;22.59;48.94;102170.16;5033508;28;20538;-44
2022/07/11 10:01:52;;;;;;;2.90;2.70;;;;;;;22.77;48.36;102171.06;5033244;28;20543;-45
2022/07/11 10:04:21;;;;;;;18.33;4.20;;;;;;;23.30;47.47;102166.06;5033277;28;20833;-44
2022/07/11 10:06:49;;;;;;;4.13;2.77;;;;;;;23.33;47.30;102168.28;5033388;28;20447;-47
2022/07/11 10:09:16;;;;;;;2.80;2.60;;;;;;;22.90;47.09;102165.34;5033298;28;20526;-46
2022/07/11 10:11:45;;;;;;;3.30;3.00;;;;;;;22.76;46.73;102161.28;5032821;28;20494;-45
2022/07/11 10:14:12;;;;;;;2.80;2.60;;;;;;;23.26;47.11;102156.75;5032876;28;20471;-44
2022/07/11 10:16:56;;;;;;;3.07;2.70;;;;;;;22.83;46.21;102151.91;5033018;28;20892;-44
2022/07/11 10:19:33;;;;;;;3.10;2.90;;;;;;;22.80;47.07;102151.56;5033279;28;20438;-44
2022/07/11 10:22:10;;;;;;;3.00;2.80;;;;;;;23.21;46.61;102156.66;5032532;28;20824;-44
2022/07/11 10:24:46;;;;;;;2.70;2.60;;;;;;;23.67;46.50;102148.19;5032334;28;20438;-45
2022/07/11 10:27:24;;;;;;;2.80;2.70;;;;;;;24.07;46.22;102145.19;5032742;28;20510;-50
2022/07/11 10:29:53;;;;;;;2.50;2.30;;;;;;;24.18;44.40;102140.75;5033082;28;20814;-46
2022/07/11 10:32:22;;;;;;;2.93;2.73;;;;;;;24.46;44.60;102145.97;5038136;28;20553;-47
2022/07/11 10:35:10;;;;;;;2.87;2.67;;;;;;;24.81;44.64;102151.06;5044404;28;20649;-44
2022/07/11 10:37:48;;;;;;;2.50;2.40;;;;;;;24.20;45.50;102152.22;5052389;28;20530;-45
2022/07/11 10:40:45;;;;;;;4.23;2.50;;;;;;;23.84;48.22;102152.75;5052791;28;20427;-48
2022/07/11 10:43:14;;;;;;;2.30;2.10;;;;;;;24.17;44.65;102148.09;5052286;28;20439;-51
2022/07/11 10:45:59;;;;;;;2.50;2.30;;;;;;;23.68;44.75;102149.00;5052441;28;20494;-47
2022/07/11 10:48:30;;;;;;;2.47;2.20;;;;;;;23.27;43.25;102150.22;5052940;28;20431;-46
2022/07/11 10:51:21;;;;;;;2.10;2.00;;;;;;;22.96;44.35;102157.03;5051503;28;20958;-44
2022/07/11 10:53:50;;;;;;;2.67;2.40;;;;;;;22.54;43.88;102153.75;5052005;28;20870;-46
2022/07/11 10:56:34;;;;;;;2.50;2.30;;;;;;;22.92;45.29;102163.19;5052024;28;20461;-45
2022/07/11 10:59:21;;;;;;;3.63;2.80;;;;;;;23.75;43.91;102159.72;5052091;28;20427;-49
2022/07/11 11:02:10;;;;;;;3.63;2.53;;;;;;;24.29;42.96;102158.03;5051849;28;20465;-49
2022/07/11 11:04:51;;;;;;;2.50;2.30;;;;;;;24.57;41.10;102164.13;5051935;28;20994;-45
2022/07/11 11:07:36;;;;;;;2.40;2.20;;;;;;;24.78;42.05;102166.00;5052094;28;20538;-47
2022/07/11 11:10:49;;;;;;;2.93;2.50;;;;;;;24.04;42.19;102177.59;5051946;28;20430;-46
2022/07/11 11:13:20;;;;;;;2.77;2.57;;;;;;;23.58;46.18;102176.91;5051731;28;20434;-50
2022/07/11 11:15:50;;;;;;;5.93;2.63;;;;;;;23.56;44.34;102184.50;5052077;28;20458;-48
2022/07/11 11:18:37;;;;;;;2.77;2.57;;;;;;;23.87;43.98;102165.88;5052205;28;20434;-51
2022/07/11 11:21:17;;;;;;;5.43;2.60;;;;;;;24.46;45.95;102159.63;5051459;28;20459;-47
2022/07/11 11:23:46;;;;;;;2.60;2.40;;;;;;;24.90;44.25;102160.44;5052025;28;20799;-47
2022/07/11 11:26:20;;;;;;;2.70;2.50;;;;;;;25.46;43.29;102163.66;5051707;28;20451;-49
2022/07/11 11:28:57;;;;;;;2.60;2.40;;;;;;;26.01;41.72;102168.72;5052075;28;20852;-51
2022/07/11 11:31:25;;;;;;;2.47;2.37;;;;;;;25.91;40.24;102164.00;5051294;28;20879;-45
2022/07/11 11:33:53;;;;;;;2.07;1.97;;;;;;;26.03;41.51;102169.25;5041303;28;20518;-45
2022/07/11 11:36:24;;;;;;;3.73;3.17;;;;;;;26.19;42.42;102162.81;5051302;28;21046;-45
2022/07/11 11:38:53;;;;;;;2.80;2.60;;;;;;;25.69;42.00;102163.31;5051457;28;20431;-51
2022/07/11 11:41:23;;;;;;;3.90;2.53;;;;;;;25.32;44.46;102166.00;5050987;28;20549;-47
2022/07/11 11:43:52;;;;;;;3.70;2.43;;;;;;;24.94;43.56;102164.28;5051179;28;20946;-47
2022/07/11 11:46:23;;;;;;;2.70;2.13;;;;;;;25.05;42.07;102176.13;5029886;28;20554;-45
2022/07/11 11:48:55;;;;;;;2.40;2.20;;;;;;;25.33;40.21;102161.38;5031193;28;20428;-46